Time;durP1;ratioP1;P1;durP2;ratioP2;P2;SDS_P1;SDS_P2;PMS_P1;PMS_P2;Temp;Humidity;BMP_temperature;BMP_pressure;BME280_temperature;BME280_humidity;BME280_pressure;Samples;Min_cycle;Max_cycle;Signal;HPM_P1;HPM_P2
2021/06/13 00:00:26;;;;;;;;;;;;;;;20.65;66.82;100681.84;5070231;28;1943;-44
2021/06/13 00:02:53;;;;;;;;;;;;;;;20.65;66.44;100684.53;5065456;28;1615;-44
2021/06/13 00:05:21;;;;;;;;;;;;;;;20.69;66.92;100674.34;5062671;28;1619;-44
2021/06/13 00:07:50;;;;;;;;;;;;;;;20.66;65.14;100688.91;5059500;28;1561;-44
2021/06/13 00:10:17;;;;;;;;;;;;;;;20.67;66.61;100673.63;5055172;28;1767;-43
2021/06/13 00:12:47;;;;;;;;;;;;;;;20.67;65.56;100676.31;5059397;28;1984;-44
2021/06/13 00:15:14;;;;;;;;;;;;;;;20.63;66.27;100682.97;5067746;28;1454;-43
2021/06/13 00:17:41;;;;;;;;;;;;;;;20.63;66.30;100681.16;5067826;28;1704;-43
2021/06/13 00:20:10;;;;;;;;;;;;;;;20.61;65.52;100675.09;5057135;28;1787;-44
2021/06/13 00:22:38;;;;;;;;;;;;;;;20.64;65.84;100684.69;5058004;28;1687;-43
2021/06/13 00:25:06;;;;;;;;;;;;;;;20.62;65.27;100681.31;5068771;28;1655;-44
2021/06/13 00:27:33;;;;;;;;;;;;;;;20.61;65.77;100674.22;5069131;28;1334;-43
2021/06/13 00:30:01;;;;;;;;;;;;;;;20.62;64.85;100681.31;5069433;28;1594;-43
2021/06/13 00:32:28;;;;;;;;;;;;;;;20.62;65.04;100684.81;5063494;28;1915;-43
2021/06/13 00:34:57;;;;;;;;;;;;;;;20.58;66.17;100667.28;5072299;28;1730;-43
2021/06/13 00:37:22;;;;;;;;;;;;;;;20.63;65.94;100682.97;5060030;28;1696;-44
2021/06/13 00:39:54;;;;;;;;;;;;;;;20.60;65.58;100672.53;5053261;28;1171;-43
2021/06/13 00:42:20;;;;;;;;;;;;;;;20.60;65.46;100673.38;5067738;28;1912;-43
2021/06/13 00:44:50;;;;;;;;;;;;;;;20.59;66.10;100671.72;5070515;28;1759;-44
2021/06/13 00:47:18;;;;;;;;;;;;;;;20.58;66.12;100659.22;5055947;28;1554;-43
2021/06/13 00:49:45;;;;;;;;;;;;;;;20.59;65.06;100677.09;5069085;28;1306;-43
2021/06/13 00:52:13;;;;;;;;;;;;;;;20.57;64.52;100667.41;5060930;28;1905;-43
2021/06/13 00:54:41;;;;;;;;;;;;;;;20.60;65.82;100657.25;5067270;28;1988;-43
2021/06/13 00:57:20;;;;;;;;;;;;;;;20.58;64.68;100659.22;5057241;28;1766;-44
2021/06/13 00:59:49;;;;;;;;;;;;;;;20.60;64.53;100662.63;5060649;28;1724;-44
2021/06/13 01:02:17;;;;;;;;;;;;;;;20.59;65.23;100658.28;5055944;28;1752;-44
2021/06/13 01:04:43;;;;;;;;;;;;;;;20.60;65.26;100645.69;5069197;28;1740;-44
2021/06/13 01:07:13;;;;;;;;;;;;;;;20.58;64.92;100647.63;5056028;28;1091;-43
2021/06/13 01:09:43;;;;;;;;;;;;;;;20.56;64.99;100650.47;5068949;28;1451;-43
2021/06/13 01:12:17;;;;;;;;;;;;;;;20.57;64.92;100657.53;5071698;28;1973;-44
2021/06/13 01:14:56;;;;;;;;;;;;;;;20.60;64.63;100649.19;5071875;28;1870;-43
2021/06/13 01:17:29;;;;;;;;;;;;;;;20.60;64.53;100629.56;5063467;28;1952;-43
2021/06/13 01:20:03;;;;;;;;;;;;;;;20.58;65.06;100637.72;5069422;28;1570;-44
2021/06/13 01:22:37;;;;;;;;;;;;;;;20.58;64.42;100637.72;5070691;28;1619;-44
2021/06/13 01:25:19;;;;;;;;;;;;;;;20.58;65.53;100634.19;5071097;28;1515;-44
2021/06/13 01:28:02;;;;;;;;;;;;;;;20.57;64.73;100632.50;5070874;28;1699;-44
2021/06/13 01:30:40;;;;;;;;;;;;;;;20.57;65.33;100635.19;5058486;28;1513;-44
2021/06/13 01:33:08;;;;;;;;;;;;;;;20.56;64.70;100630.81;5052457;28;1906;-43
2021/06/13 01:35:41;;;;;;;;;;;;;;;20.54;64.58;100625.59;5059341;28;1866;-44
2021/06/13 01:38:15;;;;;;;;;;;;;;;20.55;65.12;100637.16;5068646;28;1569;-43
2021/06/13 01:40:42;;;;;;;;;;;;;;;20.54;64.61;100622.91;5067529;28;1440;-43
2021/06/13 01:43:08;;;;;;;;;;;;;;;20.54;65.13;100614.84;5064652;28;1636;-43
2021/06/13 01:45:44;;;;;;;;;;;;;;;20.54;65.39;100619.38;5071308;28;1914;-44
2021/06/13 01:48:16;;;;;;;;;;;;;;;20.53;63.98;100623.03;5063696;28;2062;-43
2021/06/13 01:50:43;;;;;;;;;;;;;;;20.51;64.26;100625.88;5063616;28;1651;-43
2021/06/13 01:53:14;;;;;;;;;;;;;;;20.50;64.38;100616.13;5059365;28;1906;-44
2021/06/13 01:55:41;;;;;;;;;;;;;;;20.52;64.55;100605.25;5070070;28;2058;-43
2021/06/13 01:58:09;;;;;;;;;;;;;;;20.51;64.52;100604.38;5073891;28;1004;-43
2021/06/13 02:03:15;;;;;;;;;;;;;;;20.54;64.23;100611.31;5049542;28;2550;-46
2021/06/13 02:05:48;;;;;;;;;;;;;;;20.50;64.42;100613.44;5056035;28;1579;-45
2021/06/13 02:08:18;;;;;;;;;;;;;;;20.50;64.38;100621.50;5054547;28;1771;-46
2021/06/13 02:10:53;;;;;;;;;;;;;;;20.51;64.01;100614.28;5053685;28;1834;-45
2021/06/13 02:13:23;;;;;;;;;;;;;;;20.50;64.25;100608.09;5050496;28;1905;-46
2021/06/13 02:15:49;;;;;;;;;;;;;;;20.46;64.30;100610.22;5055375;28;1624;-45
2021/06/13 02:18:31;;;;;;;;;;;;;;;20.50;64.93;100610.75;5055948;28;1913;-46
2021/06/13 02:20:59;;;;;;;;;;;;;;;20.50;63.71;100605.41;5061780;28;1626;-45
2021/06/13 02:23:26;;;;;;;;;;;;;;;20.52;64.93;100598.03;5054003;28;1795;-46
2021/06/13 02:25:56;;;;;;;;;;;;;;;20.47;63.86;100597.63;5053573;28;1976;-45
2021/06/13 02:28:25;;;;;;;;;;;;;;;20.49;64.21;100601.00;5053576;28;1576;-45
2021/06/13 02:30:52;;;;;;;;;;;;;;;20.49;64.00;100579.50;5053843;28;1627;-45
2021/06/13 02:33:26;;;;;;;;;;;;;;;20.49;63.41;100592.09;5053402;28;1906;-45
2021/06/13 02:35:57;;;;;;;;;;;;;;;20.46;63.61;100564.56;5058871;28;2170;-45
2021/06/13 02:38:23;;;;;;;;;;;;;;;20.48;64.52;100567.09;5055435;28;1606;-45
2021/06/13 02:40:53;;;;;;;;;;;;;;;20.50;63.93;100575.00;5053570;28;2032;-47
2021/06/13 02:43:21;;;;;;;;;;;;;;;20.48;64.29;100575.16;5053947;28;1571;-46
2021/06/13 02:45:49;;;;;;;;;;;;;;;20.53;64.13;100572.88;5053880;28;1546;-46
2021/06/13 02:48:17;;;;;;;;;;;;;;;20.49;63.30;100558.03;5049258;28;2040;-45
2021/06/13 02:50:47;;;;;;;;;;;;;;;20.48;63.52;100559.03;5052485;28;1889;-47
2021/06/13 02:53:20;;;;;;;;;;;;;;;20.48;63.60;100572.47;5053208;28;1922;-46
2021/06/13 02:55:50;;;;;;;;;;;;;;;20.48;63.09;100566.25;5052464;28;1952;-45
2021/06/13 02:58:22;;;;;;;;;;;;;;;20.46;63.27;100566.41;5054346;28;1074;-45
2021/06/13 03:00:53;;;;;;;;;;;;;;;20.47;63.42;100565.38;5047906;28;1995;-45
2021/06/13 03:03:21;;;;;;;;;;;;;;;20.43;63.98;100554.13;5064266;28;1975;-48
2021/06/13 03:05:55;;;;;;;;;;;;;;;20.44;64.32;100550.44;5060904;28;1577;-45
2021/06/13 03:08:29;;;;;;;;;;;;;;;20.44;63.43;100549.59;5052942;28;1662;-46
2021/06/13 03:10:56;;;;;;;;;;;;;;;20.46;64.14;100555.66;5053206;28;1200;-46
2021/06/13 03:13:29;;;;;;;;;;;;;;;20.48;63.77;100556.34;5052787;28;1909;-45
2021/06/13 03:15:56;;;;;;;;;;;;;;;20.45;63.59;100540.53;5052854;28;1622;-47
2021/06/13 03:18:27;;;;;;;;;;;;;;;20.45;64.21;100545.88;5053625;28;1141;-46
2021/06/13 03:21:00;;;;;;;;;;;;;;;20.48;64.40;100540.22;5052921;28;1752;-46
2021/06/13 03:23:31;;;;;;;;;;;;;;;20.46;64.01;100547.59;5053015;28;1959;-46
2021/06/13 03:26:13;;;;;;;;;;;;;;;20.51;63.67;100553.34;5052788;28;1585;-45
2021/06/13 03:28:52;;;;;;;;;;;;;;;20.52;63.82;100557.72;5041778;28;1888;-45
2021/06/13 03:31:21;;;;;;;;;;;;;;;20.51;63.92;100550.66;5051446;28;1650;-46
2021/06/13 03:33:49;;;;;;;;;;;;;;;20.54;64.39;100544.16;5037819;28;1969;-45
2021/06/13 03:36:31;;;;;;;;;;;;;;;20.56;63.84;100544.84;5052728;28;2052;-45
2021/06/13 03:39:13;;;;;;;;;;;;;;;20.56;63.99;100548.38;5052098;28;1654;-45
2021/06/13 03:41:53;;;;;;;;;;;;;;;20.56;63.55;100543.00;5052539;28;1886;-45
2021/06/13 03:44:24;;;;;;;;;;;;;;;20.57;63.30;100538.47;5052796;28;1779;-45
2021/06/13 03:46:54;;;;;;;;;;;;;;;20.61;63.79;100540.75;5051852;28;1726;-46
2021/06/13 03:49:23;;;;;;;;;;;;;;;20.65;63.81;100539.44;5052342;28;1704;-45
2021/06/13 03:51:51;;;;;;;;;;;;;;;20.68;63.38;100553.56;5045665;28;1564;-47
2021/06/13 03:54:17;;;;;;;;;;;;;;;20.72;63.30;100546.91;5051329;28;1973;-45
2021/06/13 03:56:47;;;;;;;;;;;;;;;20.77;64.41;100549.97;5049654;28;2093;-49
2021/06/13 03:59:16;;;;;;;;;;;;;;;20.78;64.03;100548.97;5051048;28;1528;-46
2021/06/13 04:01:44;;;;;;;;;;;;;;;20.84;63.65;100532.25;5051304;28;1735;-47
2021/06/13 04:04:12;;;;;;;;;;;;;;;20.89;63.57;100545.22;5071959;28;999;-46
2021/06/13 04:06:40;;;;;;;;;;;;;;;20.89;64.16;100538.00;5070703;28;1734;-47
2021/06/13 04:09:06;;;;;;;;;;;;;;;20.88;63.81;100520.19;5070238;28;1456;-46
2021/06/13 04:11:33;;;;;;;;;;;;;;;20.90;64.01;100526.25;5070796;28;1622;-46
2021/06/13 04:14:02;;;;;;;;;;;;;;;20.93;64.32;100527.78;5068926;28;1910;-46
2021/06/13 04:16:28;;;;;;;;;;;;;;;20.93;64.23;100525.09;5069569;28;1675;-46
2021/06/13 04:18:56;;;;;;;;;;;;;;;20.97;64.78;100535.41;5064715;28;1625;-46
2021/06/13 04:21:23;;;;;;;;;;;;;;;20.97;65.56;100535.41;5071517;28;1945;-46
2021/06/13 04:23:51;;;;;;;;;;;;;;;21.00;65.55;100531.53;5070679;28;1405;-46
2021/06/13 04:26:18;;;;;;;;;;;;;;;21.02;64.64;100525.00;5069833;28;1656;-46
2021/06/13 04:28:45;;;;;;;;;;;;;;;21.03;65.49;100529.41;5072874;28;1745;-46
2021/06/13 04:31:14;;;;;;;;;;;;;;;21.11;64.90;100511.63;5077857;28;1512;-49
2021/06/13 04:33:41;;;;;;;;;;;;;;;21.10;65.37;100515.34;5071099;28;1989;-47
2021/06/13 04:36:08;;;;;;;;;;;;;;;21.18;65.30;100510.03;5069919;28;1838;-46
2021/06/13 04:38:34;;;;;;;;;;;;;;;21.17;64.73;100521.75;5078318;28;1777;-46
2021/06/13 04:41:01;;;;;;;;;;;;;;;21.19;64.87;100496.41;5077646;28;1674;-46
2021/06/13 04:43:27;;;;;;;;;;;;;;;21.18;64.80;100505.47;5065635;28;1515;-47
2021/06/13 04:45:54;;;;;;;;;;;;;;;21.22;64.84;100484.50;5061142;28;1502;-47
2021/06/13 04:48:22;;;;;;;;;;;;;;;21.28;65.54;100501.84;5070306;28;1085;-45
2021/06/13 04:50:48;;;;;;;;;;;;;;;21.31;64.91;100469.25;5070891;28;1766;-45
2021/06/13 04:53:22;;;;;;;;;;;;;;;21.33;65.42;100476.19;5066974;28;1986;-45
2021/06/13 04:55:51;;;;;;;;;;;;;;;21.36;65.96;100469.63;5062457;28;1470;-46
2021/06/13 04:58:23;;;;;;;;;;;;;;;21.36;65.51;100469.63;5070741;28;1002;-46
2021/06/13 05:00:50;;;;;;;;;;;;;;;21.36;66.31;100475.84;5074274;28;1609;-45
2021/06/13 05:03:16;;;;;;;;;;;;;;;21.29;66.27;100480.19;5051728;28;1718;-43
2021/06/13 05:05:44;;;;;;;;;;;;;;;21.33;66.77;100483.38;5045287;28;1650;-43
2021/06/13 05:08:11;;;;;;;;;;;;;;;21.34;66.88;100472.47;5047793;28;1694;-43
2021/06/13 05:10:37;;;;;;;;;;;;;;;21.30;66.76;100476.50;5045482;28;1612;-43
2021/06/13 05:13:13;;;;;;;;;;;;;;;21.32;66.90;100496.00;5068968;28;2134;-45
2021/06/13 05:15:40;;;;;;;;;;;;;;;21.29;67.05;100503.53;5054921;28;1748;-43
2021/06/13 05:18:06;;;;;;;;;;;;;;;21.15;67.92;100511.19;5045999;28;1500;-43
2021/06/13 05:20:33;;;;;;;;;;;;;;;21.08;67.27;100514.66;5046032;28;1917;-43
2021/06/13 05:23:02;;;;;;;;;;;;;;;21.07;68.07;100497.69;5042407;28;1764;-43
2021/06/13 05:25:29;;;;;;;;;;;;;;;21.11;67.98;100482.91;5040058;28;1549;-44
2021/06/13 05:27:56;;;;;;;;;;;;;;;20.94;68.08;100473.88;5044340;28;1501;-43
2021/06/13 05:30:23;;;;;;;;;;;;;;;20.93;67.15;100474.88;5049698;28;1633;-44
2021/06/13 05:32:49;;;;;;;;;;;;;;;20.98;67.74;100486.00;5034961;28;1894;-43
2021/06/13 05:35:17;;;;;;;;;;;;;;;21.11;67.63;100474.00;5043339;28;1904;-43
2021/06/13 05:37:43;;;;;;;;;;;;;;;21.11;68.02;100487.44;5072503;28;1470;-43
2021/06/13 05:40:12;;;;;;;;;;;;;;;21.06;67.90;100482.53;5065165;28;1569;-43
2021/06/13 05:42:39;;;;;;;;;;;;;;;21.10;67.66;100489.28;5043477;28;1555;-44
2021/06/13 05:45:07;;;;;;;;;;;;;;;21.21;67.50;100466.69;5073335;28;1047;-44
2021/06/13 05:47:33;;;;;;;;;;;;;;;21.17;68.25;100486.81;5070178;28;1813;-43
2021/06/13 05:50:00;;;;;;;;;;;;;;;21.14;67.83;100492.50;5071953;28;2006;-43
2021/06/13 05:52:26;;;;;;;;;;;;;;;21.14;67.91;100492.50;5071867;28;1541;-44
2021/06/13 05:54:57;;;;;;;;;;;;;;;21.25;67.75;100462.69;5045881;28;1971;-43
2021/06/13 05:57:25;;;;;;;;;;;;;;;21.13;67.76;100483.59;5043833;28;1554;-43
2021/06/13 05:59:51;;;;;;;;;;;;;;;21.16;67.36;100442.94;5050102;28;1971;-43
2021/06/13 06:02:17;;;;;;;;;;;;;;;21.27;67.45;100455.31;5048518;28;1778;-43
2021/06/13 06:04:44;;;;;;;;;;;;;;;21.28;67.19;100465.03;5054116;28;1805;-43
2021/06/13 06:07:10;;;;;;;;;;;;;;;21.26;67.29;100453.59;5053927;28;1700;-43
2021/06/13 06:09:37;;;;;;;;;;;;;;;21.25;68.05;100449.25;5053467;28;1652;-44
2021/06/13 06:12:04;;;;;;;;;;;;;;;21.33;67.51;100449.28;5053737;28;1615;-44
2021/06/13 06:14:32;;;;;;;;;;;;;;;21.36;67.38;100459.72;5048053;28;1977;-43
2021/06/13 06:16:58;;;;;;;;;;;;;;;21.29;67.54;100431.78;5052613;28;1696;-44
2021/06/13 06:19:24;;;;;;;;;;;;;;;21.20;67.74;100432.72;5055463;28;1926;-43
2021/06/13 06:21:51;;;;;;;;;;;;;;;21.29;67.87;100429.09;5054346;28;1614;-42
2021/06/13 06:24:17;;;;;;;;;;;;;;;21.26;67.36;100427.53;5053708;28;1938;-43
2021/06/13 06:26:44;;;;;;;;;;;;;;;21.27;67.40;100433.78;5056915;28;1785;-44
2021/06/13 06:29:10;;;;;;;;;;;;;;;21.40;68.24;100423.41;5057891;28;1857;-43
2021/06/13 06:31:38;;;;;;;;;;;;;;;21.34;67.56;100407.94;5058771;28;1873;-44
2021/06/13 06:34:05;;;;;;;;;;;;;;;21.40;67.07;100438.72;5056422;28;1988;-43
2021/06/13 06:36:31;;;;;;;;;;;;;;;21.31;67.55;100427.09;5055051;28;2010;-43
2021/06/13 06:38:58;;;;;;;;;;;;;;;21.29;67.55;100431.78;5051986;28;1610;-43
2021/06/13 06:41:24;;;;;;;;;;;;;;;21.23;68.17;100432.41;5045813;28;1642;-44
2021/06/13 06:43:52;;;;;;;;;;;;;;;21.25;67.82;100420.50;5054226;28;1810;-43
2021/06/13 06:46:19;;;;;;;;;;;;;;;21.26;68.20;100424.84;5054856;28;1616;-43
2021/06/13 06:48:46;;;;;;;;;;;;;;;21.24;68.36;100426.03;5054615;28;1865;-43
2021/06/13 06:51:19;;;;;;;;;;;;;;;21.21;67.85;100423.66;5053403;28;1917;-45
2021/06/13 06:53:45;;;;;;;;;;;;;;;21.22;67.88;100420.78;5052558;28;1902;-43
2021/06/13 06:56:12;;;;;;;;;;;;;;;21.23;67.72;100429.72;5054644;28;1627;-43
2021/06/13 06:58:39;;;;;;;;;;;;;;;21.21;66.79;100400.31;5054626;28;1576;-43
2021/06/13 07:01:06;;;;;;;;;;;;;;;21.15;67.66;100405.44;5060146;28;1794;-43
2021/06/13 07:03:32;;;;;;;;;;;;;;;21.13;67.66;100392.19;5053658;28;1735;-44
2021/06/13 07:06:00;;;;;;;;;;;;;;;21.18;68.08;100399.78;5056061;28;1750;-44
2021/06/13 07:08:26;;;;;;;;;;;;;;;21.15;66.79;100400.94;5053679;28;1565;-44
2021/06/13 07:10:53;;;;;;;;;;;;;;;21.18;67.85;100391.69;5046277;28;1664;-44
2021/06/13 07:13:19;;;;;;;;;;;;;;;21.15;67.25;100383.94;5053836;28;1973;-44
2021/06/13 07:18:27;;;;;;;;;;;;;;;21.29;66.82;100396.81;5055012;28;2487;-44
2021/06/13 07:21:14;;;;;;;;;;;;;;;21.27;67.80;100393.44;5053159;28;1902;-44
2021/06/13 07:23:45;;;;;;;;;;;;;;;21.32;66.88;100399.19;5053922;28;1937;-46
2021/06/13 07:26:13;;;;;;;;;;;;;;;21.33;66.65;100406.25;5053942;28;1782;-46
2021/06/13 07:28:42;;;;;;;;;;;;;;;21.30;67.70;100403.88;5054097;28;1848;-46
2021/06/13 07:31:11;;;;;;;;;;;;;;;21.28;67.41;100407.72;5044989;28;1891;-46
2021/06/13 07:33:41;;;;;;;;;;;;;;;21.39;66.80;100394.03;5054534;28;1985;-46
2021/06/13 07:36:09;;;;;;;;;;;;;;;21.27;66.51;100396.13;5053993;28;1889;-46
2021/06/13 07:38:37;;;;;;;;;;;;;;;21.26;66.47;100394.44;5054291;28;2042;-46
2021/06/13 07:41:12;;;;;;;;;;;;;;;21.26;67.36;100416.78;5054337;28;1815;-46
2021/06/13 07:43:47;;;;;;;;;;;;;;;21.34;66.53;100402.53;5054146;28;1605;-46
2021/06/13 07:46:22;;;;;;;;;;;;;;;21.42;66.49;100382.91;5042154;28;1953;-46
2021/06/13 07:48:52;;;;;;;;;;;;;;;21.48;66.58;100386.84;5048797;28;1888;-46
2021/06/13 07:51:22;;;;;;;;;;;;;;;21.51;66.60;100389.22;5053224;28;1907;-46
2021/06/13 07:53:56;;;;;;;;;;;;;;;21.61;66.66;100406.94;5051497;28;1971;-47
2021/06/13 07:56:28;;;;;;;;;;;;;;;21.59;66.98;100394.66;5051345;28;1343;-46
2021/06/13 07:58:55;;;;;;;;;;;;;;;21.59;65.78;100391.97;5054237;28;1007;-46
2021/06/13 08:01:24;;;;;;;;;;;;;;;21.68;66.74;100400.91;5052397;28;1980;-46
2021/06/13 08:03:51;;;;;;;;;;;;;;;21.77;66.11;100398.06;5059751;28;2025;-46
2021/06/13 08:06:17;;;;;;;;;;;;;;;21.80;66.07;100399.59;5067207;28;1460;-47
2021/06/13 08:11:34;;;;;;;;;;;;;;;21.74;66.05;100389.47;5065610;28;1663;-47
2021/06/13 08:14:03;;;;;;;;;;;;;;;21.72;66.03;100384.25;5061893;28;1973;-46
2021/06/13 08:16:33;;;;;;;;;;;;;;;21.71;65.51;100369.13;5071740;28;1318;-47
2021/06/13 08:19:02;;;;;;;;;;;;;;;21.67;65.52;100369.63;5066953;28;1666;-46
2021/06/13 08:21:31;;;;;;;;;;;;;;;21.68;66.28;100371.28;5066776;28;1460;-46
2021/06/13 08:24:00;;;;;;;;;;;;;;;21.68;65.67;100355.16;5073221;28;1607;-47
2021/06/13 08:26:31;;;;;;;;;;;;;;;21.72;66.14;100351.13;5073004;28;1825;-46
2021/06/13 08:29:01;;;;;;;;;;;;;;;21.74;65.69;100382.25;5073255;28;1789;-46
2021/06/13 08:31:29;;;;;;;;;;;;;;;21.69;65.98;100373.00;5078079;28;1826;-47
2021/06/13 08:34:02;;;;;;;;;;;;;;;21.67;65.24;100354.31;5087731;28;1906;-46
2021/06/13 08:36:39;;;;;;;;;;;;;;;21.66;66.27;100374.13;5077884;28;1580;-46
2021/06/13 08:39:05;;;;;;;;;;;;;;;21.66;65.71;100355.31;5083440;28;1604;-46
2021/06/13 08:41:41;;;;;;;;;;;;;;;21.65;66.01;100365.22;5074536;28;1503;-47
2021/06/13 08:44:09;;;;;;;;;;;;;;;21.66;65.37;100355.31;5073622;28;1799;-47
2021/06/13 08:46:41;;;;;;;;;;;;;;;21.68;66.23;100355.97;5088884;28;1498;-47
2021/06/13 08:49:07;;;;;;;;;;;;;;;21.72;65.85;100357.34;5069619;28;1432;-46
2021/06/13 08:51:34;;;;;;;;;;;;;;;21.73;65.75;100364.41;5075379;28;1697;-47
2021/06/13 08:54:02;;;;;;;;;;;;;;;21.75;66.00;100353.50;5072567;28;1898;-47
2021/06/13 08:56:32;;;;;;;;;;;;;;;21.77;65.57;100360.41;5076989;28;1447;-46
2021/06/13 08:59:02;;;;;;;;;;;;;;;21.82;66.01;100359.88;5078539;28;1734;-48
2021/06/13 09:01:31;;;;;;;;;;;;;;;21.81;66.56;100364.44;5079790;28;1529;-46
2021/06/13 09:04:01;;;;;;;;;;;;;;;21.82;65.93;100355.34;5073014;28;1566;-47
2021/06/13 09:06:31;;;;;;;;;;;;;;;21.78;66.22;100337.84;5068708;28;1645;-46
2021/06/13 09:08:59;;;;;;;;;;;;;;;21.80;66.03;100351.13;5069975;28;1613;-47
2021/06/13 09:11:47;;;;;;;;;;;;;;;21.92;66.56;100354.38;5068879;28;1471;-46
2021/06/13 09:14:16;;;;;;;;;;;;;;;21.97;66.81;100352.03;5066675;28;1902;-46
2021/06/13 09:16:53;;;;;;;;;;;;;;;21.92;66.76;100349.00;5061897;28;1600;-46
2021/06/13 09:19:22;;;;;;;;;;;;;;;21.91;67.24;100355.38;5063581;28;2071;-46
2021/06/13 09:21:49;;;;;;;;;;;;;;;21.81;66.71;100355.53;5066356;28;1696;-47
2021/06/13 09:24:17;;;;;;;;;;;;;;;21.84;67.98;100366.81;5088407;28;1853;-47
2021/06/13 09:26:47;;;;;;;;;;;;;;;21.84;67.85;100353.34;5083029;28;1031;-47
2021/06/13 09:29:15;;;;;;;;;;;;;;;21.74;68.32;100376.84;5067542;28;1534;-46
2021/06/13 09:31:42;;;;;;;;;;;;;;;21.69;67.98;100373.81;5073328;28;1817;-47
2021/06/13 09:34:13;;;;;;;;;;;;;;;21.70;68.26;100362.03;5074679;28;1973;-47
2021/06/13 09:36:40;;;;;;;;;;;;;;;21.76;68.09;100374.84;5061986;28;1515;-46
2021/06/13 09:39:08;;;;;;;;;;;;;;;21.85;68.40;100376.56;5078225;28;1525;-47
2021/06/13 09:41:35;;;;;;;;;;;;;;;21.91;68.27;100364.31;5077266;28;1604;-46
2021/06/13 09:44:03;;;;;;;;;;;;;;;21.85;68.05;100381.13;5067143;28;1562;-47
2021/06/13 09:46:32;;;;;;;;;;;;;;;21.80;68.29;100400.44;5078396;28;1439;-47
2021/06/13 09:49:02;;;;;;;;;;;;;;;21.63;69.01;100404.09;5072815;28;1642;-48
2021/06/13 09:51:32;;;;;;;;;;;;;;;21.60;69.40;100391.78;5074454;28;1525;-48
2021/06/13 09:53:59;;;;;;;;;;;;;;;21.63;69.36;100382.56;5074375;28;1910;-48
2021/06/13 09:56:26;;;;;;;;;;;;;;;21.59;68.94;100406.25;5076403;28;2115;-48
2021/06/13 09:59:04;;;;;;;;;;;;;;;21.38;68.84;100390.47;5055521;28;1838;-47
2021/06/13 10:01:33;;;;;;;;;;;;;;;21.41;69.05;100405.47;5062195;28;1577;-48
2021/06/13 10:04:00;;;;;;;;;;;;;;;21.24;69.36;100407.19;5059092;28;2117;-48
2021/06/13 10:06:29;;;;;;;;;;;;;;;21.20;69.75;100395.91;5051710;28;1669;-48
2021/06/13 10:09:02;;;;;;;;;;;;;;;21.21;70.00;100396.78;5055205;28;1861;-48
2021/06/13 10:11:30;;;;;;;;;;;;;;;21.17;71.02;100408.81;5052726;28;1458;-47
2021/06/13 10:13:57;;;;;;;;;;;;;;;21.13;71.59;100410.16;5046813;28;1541;-47
2021/06/13 10:16:43;;;;;;;;;;;;;;;21.14;71.55;100409.16;5062694;28;1417;-48
2021/06/13 10:19:13;;;;;;;;;;;;;;;21.14;72.45;100414.53;5059063;28;1675;-47
2021/06/13 10:21:42;;;;;;;;;;;;;;;21.04;72.31;100402.03;5061760;28;1690;-47
2021/06/13 10:24:10;;;;;;;;;;;;;;;21.17;73.09;100414.19;5065671;28;1093;-47
2021/06/13 10:26:37;;;;;;;;;;;;;;;21.18;73.02;100402.47;5057320;28;1714;-47
2021/06/13 10:29:25;;;;;;;;;;;;;;;21.06;73.60;100397.34;5056395;28;1965;-47
2021/06/13 10:32:06;;;;;;;;;;;;;;;20.93;72.83;100405.00;5054178;28;2073;-47
2021/06/13 10:34:49;;;;;;;;;;;;;;;20.79;71.48;100401.03;5051700;28;1910;-46
2021/06/13 10:37:16;;;;;;;;;;;;;;;20.85;71.92;100407.63;5051782;28;1544;-46
2021/06/13 10:39:50;;;;;;;;;;;;;;;20.84;71.34;100395.19;5052271;28;1614;-47
2021/06/13 10:42:23;;;;;;;;;;;;;;;20.80;71.47;100404.56;5053856;28;1167;-46
2021/06/13 10:44:53;;;;;;;;;;;;;;;20.83;70.98;100401.53;5051409;28;1518;-46
2021/06/13 10:47:23;;;;;;;;;;;;;;;20.88;72.10;100376.91;5060824;28;1543;-46
2021/06/13 10:50:03;;;;;;;;;;;;;;;20.89;71.47;100382.13;5057201;28;1503;-47
2021/06/13 10:52:31;;;;;;;;;;;;;;;21.09;72.16;100384.56;5042845;28;1651;-47
2021/06/13 10:55:08;;;;;;;;;;;;;;;20.85;72.26;100375.38;5067492;28;1907;-46
2021/06/13 10:57:38;;;;;;;;;;;;;;;20.88;72.15;100366.16;5055204;28;1197;-47
2021/06/13 11:00:25;;;;;;;;;;;;;;;20.85;72.04;100364.63;5053334;28;1397;-47
2021/06/13 11:03:01;;;;;;;;;;;;;;;20.96;73.30;100361.66;5057775;28;1876;-47
2021/06/13 11:05:46;;;;;;;;;;;;;;;21.02;72.57;100331.44;5053113;28;1616;-47
2021/06/13 11:08:33;;;;;;;;;;;;;;;20.86;73.58;100332.19;5053484;28;1592;-46
2021/06/13 11:11:10;;;;;;;;;;;;;;;20.95;74.23;100330.41;5052389;28;1684;-47
2021/06/13 11:13:45;;;;;;;;;;;;;;;20.79;74.24;100343.72;5046941;28;1901;-47
2021/06/13 11:16:13;;;;;;;;;;;;;;;20.70;74.76;100334.78;5045763;28;1902;-47
2021/06/13 11:18:41;;;;;;;;;;;;;;;20.74;73.74;100336.16;5053229;28;1086;-46
2021/06/13 11:21:22;;;;;;;;;;;;;;;20.69;73.95;100337.63;5051981;28;1736;-46
2021/06/13 11:23:53;;;;;;;;;;;;;;;20.60;73.30;100334.88;5051708;28;1756;-46
2021/06/13 11:26:39;;;;;;;;;;;;;;;20.62;73.66;100310.53;5051532;28;1834;-46
2021/06/13 11:29:08;;;;;;;;;;;;;;;20.59;72.74;100316.22;5052256;28;1478;-47
2021/06/13 11:31:34;;;;;;;;;;;;;;;20.75;73.43;100326.25;5052029;28;2297;-46
2021/06/13 11:34:06;;;;;;;;;;;;;;;20.68;74.30;100320.66;5039892;28;1535;-47
2021/06/13 11:36:44;;;;;;;;;;;;;;;20.65;74.42;100329.03;5034666;28;1944;-47
2021/06/13 11:42:23;;;;;;;;;;;;;;;20.56;75.36;100336.16;5036828;28;2478;-46
2021/06/13 11:44:51;;;;;;;;;;;;;;;20.60;74.51;100332.19;5052496;28;1585;-46
2021/06/13 11:47:43;;;;;;;;;;;;;;;20.77;73.56;100337.66;5041737;28;1416;-47
2021/06/13 11:50:14;;;;;;;;;;;;;;;20.93;73.62;100332.44;5053303;28;1644;-47
2021/06/13 11:58:57;;;;;;;;;;;;;;;21.05;71.46;100336.53;5033375;28;1714;-47
2021/06/13 12:01:33;;;;;;;;;;;;;;;21.09;71.73;100344.25;5041831;28;1545;-46
2021/06/13 12:09:32;;;;;;;;;;;;;;;21.12;71.87;100362.75;5039544;28;2351;-47
2021/06/13 12:14:48;;;;;;;;;;;;;;;21.05;72.55;100370.63;5041669;28;2128;-46
2021/06/13 12:17:21;;;;;;;;;;;;;;;21.05;73.15;100370.63;5051825;28;1783;-46
2021/06/13 12:22:54;;;;;;;;;;;;;;;21.10;72.15;100354.03;5048361;28;2066;-46
2021/06/13 12:28:31;;;;;;;;;;;;;;;21.18;71.77;100380.94;5045358;28;1660;-47
2021/06/13 12:31:10;;;;;;;;;;;;;;;21.15;72.77;100375.88;5051555;28;1585;-46
2021/06/13 12:33:40;;;;;;;;;;;;;;;21.14;72.66;100374.19;5051575;28;1975;-46
2021/06/13 12:36:07;;;;;;;;;;;;;;;21.16;73.21;100356.06;5043482;28;1964;-47
2021/06/13 12:38:41;;;;;;;;;;;;;;;21.13;72.67;100361.75;5047171;28;1597;-46
2021/06/13 12:41:12;;;;;;;;;;;;;;;21.17;72.14;100363.97;5051299;28;1615;-46
2021/06/13 12:43:48;;;;;;;;;;;;;;;21.24;71.72;100366.88;5051378;28;1522;-47
2021/06/13 12:46:32;;;;;;;;;;;;;;;21.23;72.29;100378.63;5032413;28;1547;-47
2021/06/13 12:48:59;;;;;;;;;;;;;;;21.25;72.35;100366.72;5033019;28;1852;-47
2021/06/13 12:51:35;;;;;;;;;;;;;;;21.33;72.02;100367.72;5052149;28;1327;-46
2021/06/13 12:54:13;;;;;;;;;;;;;;;21.33;71.49;100357.84;5048902;28;1023;-47
2021/06/13 12:59:49;;;;;;;;;;;;;;;21.40;72.58;100363.41;5049522;28;1604;-46
2021/06/13 13:02:23;;;;;;;;;;;;;;;21.47;72.18;100369.00;5050373;28;1724;-47
2021/06/13 13:04:53;;;;;;;;;;;;;;;21.47;72.31;100359.13;5051761;28;1582;-46
2021/06/13 13:07:30;;;;;;;;;;;;;;;21.48;72.65;100381.47;5050201;28;1685;-46
2021/06/13 13:10:12;;;;;;;;;;;;;;;21.36;71.60;100356.66;5048631;28;1641;-45
2021/06/13 13:12:41;;;;;;;;;;;;;;;21.38;71.33;100342.03;5008373;28;1270;-46
2021/06/13 13:15:16;;;;;;;;;;;;;;;21.43;71.52;100350.53;5050605;28;1902;-46
2021/06/13 13:17:55;;;;;;;;;;;;;;;21.47;71.41;100332.22;5051034;28;1764;-45
2021/06/13 13:20:32;;;;;;;;;;;;;;;21.43;71.12;100329.00;5049996;28;1559;-45
2021/06/13 13:23:07;;;;;;;;;;;;;;;21.50;71.63;100341.78;5042542;28;1508;-45
2021/06/13 13:25:38;;;;;;;;;;;;;;;21.50;71.71;100342.63;5042822;28;1600;-45
2021/06/13 13:28:24;;;;;;;;;;;;;;;21.35;72.74;100334.31;5051541;28;1677;-45
2021/06/13 13:30:55;;;;;;;;;;;;;;;21.35;73.10;100318.19;5051386;28;1712;-45
2021/06/13 13:33:35;;;;;;;;;;;;;;;21.31;72.23;100324.88;5050932;28;1765;-46
2021/06/13 13:36:03;;;;;;;;;;;;;;;21.31;73.10;100327.56;5049328;28;1965;-45
2021/06/13 13:38:49;;;;;;;;;;;;;;;21.39;72.10;100314.16;5050954;28;1570;-46